createdAt,value
2023-02-14T00:01:26.679Z,64.23
2023-02-14T00:03:54.650Z,64.41
2023-02-14T00:06:22.423Z,64.69
2023-02-14T00:08:52.287Z,64.51
2023-02-14T00:11:20.754Z,64.45
2023-02-14T00:14:07.299Z,64.27
2023-02-14T00:16:35.063Z,64.20
2023-02-14T00:19:05.828Z,64.30
2023-02-14T00:21:36.112Z,64.23
2023-02-14T00:24:06.198Z,63.84
2023-02-14T00:26:34.391Z,63.97
2023-02-14T00:29:02.151Z,63.99
2023-02-14T00:31:30.036Z,64.02
2023-02-14T00:33:57.923Z,63.82
2023-02-14T00:36:25.843Z,63.65
2023-02-14T00:38:53.517Z,63.67
2023-02-14T00:41:21.619Z,63.73
2023-02-14T00:43:53.430Z,64.01
2023-02-14T00:46:22.436Z,63.93
2023-02-14T00:48:50.923Z,64.11
2023-02-14T00:51:19.481Z,64.00
2023-02-14T00:53:48.846Z,63.81
2023-02-14T00:56:18.209Z,63.89
2023-02-14T00:58:46.276Z,63.79
2023-02-14T01:01:15.397Z,63.39
2023-02-14T01:03:43.107Z,63.45
2023-02-14T01:06:10.918Z,63.40
2023-02-14T01:08:38.907Z,63.75
2023-02-14T01:11:10.976Z,63.26
2023-02-14T01:13:39.339Z,63.43
2023-02-14T01:16:09.892Z,63.28
2023-02-14T01:18:38.019Z,63.13
2023-02-14T01:21:20.267Z,63.30
2023-02-14T01:23:52.692Z,62.91
2023-02-14T01:26:21.618Z,62.94
2023-02-14T01:28:49.637Z,62.78
2023-02-14T01:31:23.657Z,62.56
2023-02-14T01:33:52.028Z,62.60
2023-02-14T01:36:23.867Z,62.61
2023-02-14T01:38:52.651Z,63.00
2023-02-14T01:41:20.917Z,62.80
2023-02-14T01:43:51.467Z,62.41
2023-02-14T01:46:19.538Z,62.28
2023-02-14T01:48:47.480Z,62.53
2023-02-14T01:51:16.335Z,62.61
2023-02-14T01:53:44.046Z,62.33
2023-02-14T01:56:22.277Z,62.11
2023-02-14T01:58:52.591Z,62.59
2023-02-14T02:01:20.946Z,62.05
2023-02-14T02:03:53.937Z,62.19
2023-02-14T02:06:26.234Z,62.40
2023-02-14T02:09:02.975Z,62.57
2023-02-14T02:11:31.125Z,62.37
2023-02-14T02:13:58.786Z,62.55
2023-02-14T02:16:38.578Z,62.46
2023-02-14T02:19:12.991Z,62.46
2023-02-14T02:22:05.799Z,62.52
2023-02-14T02:24:45.446Z,62.16
2023-02-14T02:27:29.339Z,61.78
2023-02-14T02:30:48.437Z,61.80
2023-02-14T02:33:54.688Z,61.91
2023-02-14T02:36:46.496Z,62.16
2023-02-14T02:39:53.640Z,62.00
2023-02-14T02:42:32.490Z,62.06
2023-02-14T02:46:03.121Z,62.21
2023-02-14T02:48:44.742Z,61.93
2023-02-14T02:51:39.046Z,62.23
2023-02-14T02:54:13.214Z,62.38
2023-02-14T02:56:53.361Z,62.20
2023-02-14T02:59:30.688Z,61.97
2023-02-14T03:02:18.653Z,61.97
2023-02-14T03:04:56.361Z,61.97
2023-02-14T03:07:37.189Z,62.00
2023-02-14T03:10:14.184Z,62.05
2023-02-14T03:13:00.468Z,62.14
2023-02-14T03:15:32.939Z,61.78
2023-02-14T03:18:00.737Z,61.94
2023-02-14T03:20:55.964Z,61.82
2023-02-14T03:23:29.238Z,62.01
2023-02-14T03:26:08.934Z,62.11
2023-02-14T03:28:48.110Z,61.73
2023-02-14T03:31:30.364Z,62.07
2023-02-14T03:34:09.436Z,61.82
2023-02-14T03:36:58.328Z,61.79
2023-02-14T03:40:00.488Z,61.80
2023-02-14T03:42:35.534Z,62.12
2023-02-14T03:45:06.695Z,62.09
2023-02-14T03:47:36.606Z,61.83
2023-02-14T03:50:17.722Z,61.77
2023-02-14T03:52:47.243Z,61.70
2023-02-14T03:55:17.069Z,61.93
2023-02-14T03:57:59.721Z,62.19
2023-02-14T04:00:28.771Z,61.91
2023-02-14T04:03:01.075Z,62.04
2023-02-14T04:05:28.857Z,62.15
2023-02-14T04:07:58.512Z,62.28
2023-02-14T04:10:26.665Z,62.51
2023-02-14T04:12:54.568Z,62.58
2023-02-14T04:15:22.242Z,62.51
2023-02-14T04:18:08.695Z,62.33
2023-02-14T04:20:37.360Z,62.55
2023-02-14T04:23:05.061Z,62.65
2023-02-14T04:25:32.985Z,62.83
2023-02-14T04:28:00.753Z,63.12
2023-02-14T04:30:28.461Z,62.55
2023-02-14T04:32:56.309Z,62.47
2023-02-14T04:35:24.082Z,62.39
2023-02-14T04:37:52.819Z,62.43
2023-02-14T04:40:20.546Z,62.67
2023-02-14T04:42:48.486Z,62.38
2023-02-14T04:45:16.237Z,62.30
2023-02-14T04:47:44.029Z,62.26
2023-02-14T04:50:12.299Z,62.40
2023-02-14T04:52:40.617Z,62.14
2023-02-14T04:55:09.442Z,62.07
2023-02-14T04:57:37.351Z,62.22
2023-02-14T05:00:08.226Z,61.85
2023-02-14T05:02:37.289Z,62.28
2023-02-14T05:05:05.311Z,62.02
2023-02-14T05:07:33.016Z,61.82
2023-02-14T05:10:00.814Z,61.66
2023-02-14T05:12:29.039Z,61.76
2023-02-14T05:14:57.629Z,61.84
2023-02-14T05:17:25.472Z,62.09
2023-02-14T05:19:53.341Z,61.96
2023-02-14T05:22:21.039Z,61.93
2023-02-14T05:24:48.754Z,62.16
2023-02-14T05:27:16.444Z,62.06
2023-02-14T05:29:44.083Z,62.21
2023-02-14T05:32:11.793Z,62.20
2023-02-14T05:34:39.546Z,62.32
2023-02-14T05:37:07.221Z,62.11
2023-02-14T05:39:34.941Z,62.19
2023-02-14T05:42:03.224Z,62.43
2023-02-14T05:44:30.977Z,62.55
2023-02-14T05:46:58.713Z,62.76
2023-02-14T05:49:26.393Z,62.86
2023-02-14T05:51:54.053Z,62.64
2023-02-14T05:54:21.717Z,62.45
2023-02-14T05:56:49.572Z,62.56
2023-02-14T05:59:17.274Z,62.49
2023-02-14T06:01:44.946Z,62.30
2023-02-14T06:04:12.642Z,62.15
2023-02-14T06:06:40.376Z,62.10
2023-02-14T06:09:08.100Z,62.36
2023-02-14T06:11:35.995Z,62.17
2023-02-14T06:14:04.042Z,61.86
2023-02-14T06:16:32.042Z,61.92
2023-02-14T06:19:00.361Z,61.93
2023-02-14T06:21:28.294Z,61.70
2023-02-14T06:23:56.214Z,62.07
2023-02-14T06:26:27.900Z,61.85
2023-02-14T06:28:57.171Z,61.86
2023-02-14T06:31:25.831Z,61.94
2023-02-14T06:33:54.301Z,61.73
2023-02-14T06:36:22.923Z,61.89
2023-02-14T06:38:50.663Z,61.77
2023-02-14T06:41:18.616Z,61.96
2023-02-14T06:43:50.440Z,61.83
2023-02-14T06:46:19.045Z,61.84
2023-02-14T06:48:47.308Z,61.68
2023-02-14T06:51:15.028Z,61.41
2023-02-14T06:53:42.693Z,61.55
2023-02-14T07:04:18.873Z,61.33
2023-02-14T07:08:10.977Z,62.09
2023-02-14T07:11:26.983Z,61.73
2023-02-14T07:14:05.261Z,61.76
2023-02-14T07:16:39.544Z,61.56
2023-02-14T07:19:12.801Z,61.27
2023-02-14T07:25:29.983Z,61.28
2023-02-14T07:29:35.091Z,61.37
2023-02-14T07:36:36.305Z,61.61
2023-02-14T07:55:11.855Z,59.83
2023-02-14T07:58:56.153Z,59.99
2023-02-14T08:01:53.456Z,60.30
2023-02-14T08:04:25.512Z,60.77
2023-02-14T08:07:52.906Z,60.25
2023-02-14T08:10:39.841Z,60.30
2023-02-14T08:13:25.922Z,60.22
2023-02-14T08:16:34.036Z,60.57
2023-02-14T08:19:24.450Z,60.23
2023-02-14T08:23:04.916Z,59.97
2023-02-14T08:26:30.204Z,60.39
2023-02-14T08:33:38.975Z,60.97
2023-02-14T08:40:08.840Z,61.44
2023-02-14T08:46:46.263Z,61.46
2023-02-14T08:53:47.810Z,61.88
2023-02-14T08:56:38.491Z,61.77
2023-02-14T15:16:07.032Z,52.07
2023-02-14T18:53:45.036Z,52.69
2023-02-14T19:50:09.242Z,52.03
2023-02-14T19:52:37.214Z,52.35
2023-02-14T19:55:05.124Z,52.62
2023-02-14T19:57:32.842Z,52.98
2023-02-14T20:00:00.707Z,53.02
2023-02-14T20:02:28.487Z,53.24
2023-02-14T20:04:59.297Z,53.23
2023-02-14T20:07:26.951Z,53.53
2023-02-14T20:09:54.945Z,53.74
2023-02-14T20:12:22.613Z,53.98
2023-02-14T20:14:54.087Z,54.01
2023-02-14T20:17:21.847Z,54.23
2023-02-14T20:19:49.626Z,54.30
2023-02-14T20:22:17.344Z,54.43
2023-02-14T20:24:45.114Z,54.70
2023-02-14T20:27:12.817Z,55.09
2023-02-14T20:29:43.243Z,54.90
2023-02-14T20:32:13.102Z,55.40
2023-02-14T20:34:40.802Z,55.34
2023-02-14T20:37:11.239Z,55.38
2023-02-14T20:39:39.058Z,55.61
2023-02-14T20:42:08.547Z,55.80
2023-02-14T20:44:36.467Z,55.76
2023-02-14T20:47:05.538Z,55.89
2023-02-14T20:49:35.635Z,55.99
2023-02-14T20:52:03.899Z,56.01
2023-02-14T20:54:31.606Z,56.08
2023-02-14T20:56:59.448Z,56.34
2023-02-14T20:59:28.157Z,56.67
2023-02-14T21:01:57.459Z,56.74
2023-02-14T21:04:25.592Z,56.80
2023-02-14T21:06:53.448Z,56.88
2023-02-14T21:09:21.244Z,57.03
2023-02-14T21:11:50.246Z,57.37
2023-02-14T21:14:17.877Z,57.67
2023-02-14T21:16:45.569Z,57.83
2023-02-14T21:19:13.294Z,58.11
2023-02-14T21:21:41.183Z,58.09
2023-02-14T21:24:14.665Z,58.19
2023-02-14T21:26:42.847Z,58.45
2023-02-14T21:29:10.932Z,58.50
2023-02-14T21:31:39.399Z,58.53
2023-02-14T21:34:07.179Z,58.86
2023-02-14T21:36:35.932Z,58.94
2023-02-14T21:39:05.387Z,58.77
2023-02-14T21:41:33.891Z,59.15
2023-02-14T21:44:03.282Z,59.32
2023-02-14T21:46:33.081Z,59.64
2023-02-14T21:49:20.680Z,59.45
2023-02-14T21:51:48.688Z,59.59
2023-02-14T21:54:17.564Z,60.11
2023-02-14T21:56:45.972Z,60.33
2023-02-14T21:59:13.756Z,60.03
2023-02-14T22:01:42.216Z,60.43
2023-02-14T22:04:12.314Z,60.48
2023-02-14T22:06:41.656Z,60.58
2023-02-14T22:09:11.024Z,60.52
2023-02-14T22:11:38.862Z,60.58
2023-02-14T22:14:06.586Z,60.81
2023-02-14T22:16:36.789Z,60.61
2023-02-14T22:19:06.166Z,60.80
2023-02-14T22:21:34.700Z,60.71
2023-02-14T22:24:02.389Z,60.95
2023-02-14T22:26:34.592Z,60.77
2023-02-14T22:29:03.147Z,60.84
2023-02-14T22:31:38.829Z,60.89
2023-02-14T22:34:08.246Z,61.10
2023-02-14T22:36:36.005Z,61.15
2023-02-14T22:39:04.286Z,61.20
2023-02-14T22:41:37.492Z,61.15
2023-02-14T22:44:06.016Z,61.20
2023-02-14T22:46:36.598Z,61.40
2023-02-14T22:49:05.877Z,61.32
2023-02-14T22:51:35.708Z,61.20
2023-02-14T22:54:12.422Z,61.28
2023-02-14T22:56:51.511Z,61.34
2023-02-14T22:59:21.640Z,61.27
2023-02-14T23:01:50.951Z,61.15
2023-02-14T23:04:21.596Z,61.23
2023-02-14T23:06:49.444Z,61.68
2023-02-14T23:09:17.317Z,61.77
2023-02-14T23:11:46.399Z,61.67
2023-02-14T23:14:34.025Z,61.73
2023-02-14T23:17:14.428Z,61.83
2023-02-14T23:20:01.212Z,61.85
2023-02-14T23:22:40.178Z,61.71
2023-02-14T23:25:10.838Z,61.64
2023-02-14T23:27:44.526Z,61.67
2023-02-14T23:30:15.924Z,61.58
2023-02-14T23:32:44.195Z,61.58
2023-02-14T23:35:11.918Z,61.70
2023-02-14T23:37:39.835Z,61.66
2023-02-14T23:40:08.391Z,61.61
2023-02-14T23:42:36.300Z,61.65
2023-02-14T23:45:22.903Z,61.61
2023-02-14T23:47:50.610Z,61.97
2023-02-14T23:50:18.571Z,61.93
2023-02-14T23:52:46.238Z,62.14
2023-02-14T23:55:13.887Z,62.09
2023-02-14T23:57:41.695Z,62.24
